sensor_id;sensor_type;location;lat;lon;timestamp;pressure;altitude;pressure_sealevel;temperature;humidity
43147;BME280;28752;48.266;7.402;2023-02-12T00:01:45;101446.81;;;-0.06;92.34
43147;BME280;28752;48.266;7.402;2023-02-12T00:04:11;101444.25;;;-0.09;92.04
43147;BME280;28752;48.266;7.402;2023-02-12T00:06:37;101429.56;;;-0.12;92.20
43147;BME280;28752;48.266;7.402;2023-02-12T00:09:03;101435.59;;;-0.10;92.16
43147;BME280;28752;48.266;7.402;2023-02-12T00:11:29;101423.56;;;-0.15;92.28
43147;BME280;28752;48.266;7.402;2023-02-12T00:13:55;101442.66;;;-0.15;92.22
43147;BME280;28752;48.266;7.402;2023-02-12T00:16:23;101433.94;;;-0.14;92.68
43147;BME280;28752;48.266;7.402;2023-02-12T00:18:53;101411.69;;;-0.30;93.56
43147;BME280;28752;48.266;7.402;2023-02-12T00:21:20;101433.16;;;-0.17;94.34
43147;BME280;28752;48.266;7.402;2023-02-12T00:23:46;101435.00;;;-0.24;94.53
43147;BME280;28752;48.266;7.402;2023-02-12T00:26:13;101423.59;;;-0.19;93.93
43147;BME280;28752;48.266;7.402;2023-02-12T00:28:39;101440.88;;;-0.13;93.56
43147;BME280;28752;48.266;7.402;2023-02-12T00:31:10;101427.91;;;-0.16;93.15
43147;BME280;28752;48.266;7.402;2023-02-12T00:33:36;101438.28;;;-0.14;93.34
43147;BME280;28752;48.266;7.402;2023-02-12T00:36:02;101437.47;;;-0.16;93.37
43147;BME280;28752;48.266;7.402;2023-02-12T00:38:28;101435.75;;;-0.17;93.20
43147;BME280;28752;48.266;7.402;2023-02-12T00:40:54;101425.50;;;-0.27;92.45
43147;BME280;28752;48.266;7.402;2023-02-12T00:43:20;101444.56;;;-0.26;92.97
43147;BME280;28752;48.266;7.402;2023-02-12T00:45:46;101451.50;;;-0.25;93.23
43147;BME280;28752;48.266;7.402;2023-02-12T00:48:12;101442.13;;;-0.36;93.25
43147;BME280;28752;48.266;7.402;2023-02-12T00:50:37;101439.56;;;-0.37;92.91
43147;BME280;28752;48.266;7.402;2023-02-12T00:53:05;101456.00;;;-0.35;93.64
43147;BME280;28752;48.266;7.402;2023-02-12T00:55:31;101456.13;;;-0.41;93.90
43147;BME280;28752;48.266;7.402;2023-02-12T00:57:57;101447.53;;;-0.46;94.22
43147;BME280;28752;48.266;7.402;2023-02-12T01:00:22;101450.09;;;-0.43;94.01
43147;BME280;28752;48.266;7.402;2023-02-12T01:02:48;101458.75;;;-0.44;94.11
43147;BME280;28752;48.266;7.402;2023-02-12T01:05:13;101457.88;;;-0.43;94.12
43147;BME280;28752;48.266;7.402;2023-02-12T01:07:39;101438.13;;;-0.55;93.76
43147;BME280;28752;48.266;7.402;2023-02-12T01:10:06;101445.91;;;-0.54;94.04
43147;BME280;28752;48.266;7.402;2023-02-12T01:12:31;101439.97;;;-0.60;93.92
43147;BME280;28752;48.266;7.402;2023-02-12T01:14:56;101444.91;;;-0.45;95.11
43147;BME280;28752;48.266;7.402;2023-02-12T01:17:22;101425.88;;;-0.47;96.02
43147;BME280;28752;48.266;7.402;2023-02-12T01:19:47;101434.50;;;-0.45;96.28
43147;BME280;28752;48.266;7.402;2023-02-12T01:22:13;101439.38;;;-0.26;96.24
43147;BME280;28752;48.266;7.402;2023-02-12T01:24:39;101434.97;;;-0.21;96.28
43147;BME280;28752;48.266;7.402;2023-02-12T01:27:04;101436.34;;;-0.03;95.95
43147;BME280;28752;48.266;7.402;2023-02-12T01:29:30;101419.88;;;-0.05;96.10
43147;BME280;28752;48.266;7.402;2023-02-12T01:31:55;101419.75;;;0.03;95.66
43147;BME280;28752;48.266;7.402;2023-02-12T01:34:20;101429.78;;;0.21;95.38
43147;BME280;28752;48.266;7.402;2023-02-12T01:36:46;101403.16;;;0.08;95.72
43147;BME280;28752;48.266;7.402;2023-02-12T01:39:11;101434.81;;;0.30;95.80
43147;BME280;28752;48.266;7.402;2023-02-12T01:41:40;101414.78;;;0.34;95.79
43147;BME280;28752;48.266;7.402;2023-02-12T01:46:32;101423.19;;;0.47;95.24
43147;BME280;28752;48.266;7.402;2023-02-12T01:48:57;101430.16;;;0.46;96.03
43147;BME280;28752;48.266;7.402;2023-02-12T01:51:24;101426.47;;;0.57;95.79
43147;BME280;28752;48.266;7.402;2023-02-12T01:53:53;101418.41;;;0.67;95.22
43147;BME280;28752;48.266;7.402;2023-02-12T01:56:20;101407.00;;;0.73;95.57
43147;BME280;28752;48.266;7.402;2023-02-12T01:58:50;101408.44;;;0.85;95.59
43147;BME280;28752;48.266;7.402;2023-02-12T02:01:22;101403.00;;;0.96;95.17
43147;BME280;28752;48.266;7.402;2023-02-12T02:03:51;101405.41;;;1.05;94.79
43147;BME280;28752;48.266;7.402;2023-02-12T02:06:21;101411.28;;;1.13;94.04
43147;BME280;28752;48.266;7.402;2023-02-12T02:08:49;101409.88;;;0.98;94.30
43147;BME280;28752;48.266;7.402;2023-02-12T02:11:15;101391.47;;;1.04;94.24
43147;BME280;28752;48.266;7.402;2023-02-12T02:13:59;101387.78;;;1.13;93.31
43147;BME280;28752;48.266;7.402;2023-02-12T02:27:27;101405.72;;;1.27;92.54
43147;BME280;28752;48.266;7.402;2023-02-12T02:33:07;101400.06;;;1.44;92.17
43147;BME280;28752;48.266;7.402;2023-02-12T02:41:07;101399.91;;;1.50;92.37
43147;BME280;28752;48.266;7.402;2023-02-12T02:43:46;101400.72;;;1.54;93.04
43147;BME280;28752;48.266;7.402;2023-02-12T02:46:17;101399.56;;;1.64;93.75
43147;BME280;28752;48.266;7.402;2023-02-12T02:48:48;101408.09;;;1.71;93.79
43147;BME280;28752;48.266;7.402;2023-02-12T02:51:18;101401.84;;;1.76;93.36
43147;BME280;28752;48.266;7.402;2023-02-12T02:53:48;101376.31;;;1.86;92.82
43147;BME280;28752;48.266;7.402;2023-02-12T02:56:19;101382.53;;;1.82;92.39
43147;BME280;28752;48.266;7.402;2023-02-12T02:58:59;101395.44;;;1.88;91.88
43147;BME280;28752;48.266;7.402;2023-02-12T03:01:49;101408.34;;;1.94;91.91
43147;BME280;28752;48.266;7.402;2023-02-12T03:04:20;101403.25;;;1.90;91.87
43147;BME280;28752;48.266;7.402;2023-02-12T03:06:58;101397.00;;;1.94;91.86
43147;BME280;28752;48.266;7.402;2023-02-12T03:09:31;101377.97;;;1.90;91.82
43147;BME280;28752;48.266;7.402;2023-02-12T03:12:08;101401.19;;;2.01;91.79
43147;BME280;28752;48.266;7.402;2023-02-12T03:14:38;101387.22;;;2.02;91.64
43147;BME280;28752;48.266;7.402;2023-02-12T03:17:09;101398.53;;;2.03;91.30
43147;BME280;28752;48.266;7.402;2023-02-12T03:19:44;101401.84;;;2.08;91.08
43147;BME280;28752;48.266;7.402;2023-02-12T03:22:23;101398.19;;;1.82;90.96
43147;BME280;28752;48.266;7.402;2023-02-12T03:25:14;101400.19;;;1.74;90.98
43147;BME280;28752;48.266;7.402;2023-02-12T03:30:11;101379.31;;;1.72;89.20
43147;BME280;28752;48.266;7.402;2023-02-12T03:32:54;101397.41;;;1.80;89.41
43147;BME280;28752;48.266;7.402;2023-02-12T03:35:34;101400.63;;;1.57;90.44
43147;BME280;28752;48.266;7.402;2023-02-12T03:38:25;101399.41;;;1.70;90.52
43147;BME280;28752;48.266;7.402;2023-02-12T03:41:05;101402.06;;;1.69;90.25
43147;BME280;28752;48.266;7.402;2023-02-12T03:46:38;101406.41;;;1.68;90.22
43147;BME280;28752;48.266;7.402;2023-02-12T03:51:41;101408.84;;;1.74;89.71
43147;BME280;28752;48.266;7.402;2023-02-12T03:54:11;101389.78;;;1.72;89.14
43147;BME280;28752;48.266;7.402;2023-02-12T03:57:00;101398.75;;;1.62;90.01
43147;BME280;28752;48.266;7.402;2023-02-12T03:59:27;101397.09;;;1.59;90.02
43147;BME280;28752;48.266;7.402;2023-02-12T04:01:55;101397.09;;;1.59;90.13
43147;BME280;28752;48.266;7.402;2023-02-12T04:04:23;101411.88;;;1.59;90.31
43147;BME280;28752;48.266;7.402;2023-02-12T04:06:49;101409.25;;;1.59;90.49
43147;BME280;28752;48.266;7.402;2023-02-12T04:09:16;101416.06;;;1.66;90.25
43147;BME280;28752;48.266;7.402;2023-02-12T04:12:01;101409.06;;;1.67;90.25
43147;BME280;28752;48.266;7.402;2023-02-12T04:18:39;101404.44;;;1.78;89.90
43147;BME280;28752;48.266;7.402;2023-02-12T04:21:07;101406.16;;;1.77;90.03
43147;BME280;28752;48.266;7.402;2023-02-12T04:23:42;101415.72;;;1.78;90.30
43147;BME280;28752;48.266;7.402;2023-02-12T04:31:59;101410.47;;;1.80;89.90
43147;BME280;28752;48.266;7.402;2023-02-12T04:34:55;101426.81;;;1.88;89.90
43147;BME280;28752;48.266;7.402;2023-02-12T04:37:25;101414.78;;;1.81;89.79
43147;BME280;28752;48.266;7.402;2023-02-12T04:39:55;101420.09;;;1.78;90.41
43147;BME280;28752;48.266;7.402;2023-02-12T04:42:22;101404.97;;;1.58;90.69
43147;BME280;28752;48.266;7.402;2023-02-12T04:44:48;101429.66;;;1.77;90.51
43147;BME280;28752;48.266;7.402;2023-02-12T04:47:15;101419.56;;;1.65;90.83
43147;BME280;28752;48.266;7.402;2023-02-12T04:49:41;101421.09;;;1.72;90.75
43147;BME280;28752;48.266;7.402;2023-02-12T04:52:07;101427.09;;;1.76;91.10
43147;BME280;28752;48.266;7.402;2023-02-12T04:54:32;101403.84;;;1.67;90.86
43147;BME280;28752;48.266;7.402;2023-02-12T04:56:58;101420.94;;;1.78;90.63
43147;BME280;28752;48.266;7.402;2023-02-12T04:59:23;101408.81;;;1.76;90.31
43147;BME280;28752;48.266;7.402;2023-02-12T05:01:50;101414.16;;;1.71;90.79
43147;BME280;28752;48.266;7.402;2023-02-12T05:04:16;101410.25;;;1.88;90.15
43147;BME280;28752;48.266;7.402;2023-02-12T05:06:43;101419.72;;;1.92;90.36
43147;BME280;28752;48.266;7.402;2023-02-12T05:09:15;101419.00;;;1.87;90.09
43147;BME280;28752;48.266;7.402;2023-02-12T05:11:41;101415.34;;;1.92;90.23
43147;BME280;28752;48.266;7.402;2023-02-12T05:14:07;101414.63;;;1.87;90.13
43147;BME280;28752;48.266;7.402;2023-02-12T05:16:32;101411.97;;;1.89;90.11
43147;BME280;28752;48.266;7.402;2023-02-12T05:18:57;101407.69;;;1.86;90.23
43147;BME280;28752;48.266;7.402;2023-02-12T05:21:23;101406.78;;;1.87;89.96
43147;BME280;28752;48.266;7.402;2023-02-12T05:23:48;101404.44;;;1.78;90.01
43147;BME280;28752;48.266;7.402;2023-02-12T05:26:18;101405.94;;;1.85;90.25
43147;BME280;28752;48.266;7.402;2023-02-12T05:28:44;101410.25;;;1.88;90.00
43147;BME280;28752;48.266;7.402;2023-02-12T05:31:12;101407.75;;;1.83;90.00
43147;BME280;28752;48.266;7.402;2023-02-12T05:33:37;101372.53;;;1.65;89.83
43147;BME280;28752;48.266;7.402;2023-02-12T05:36:04;101405.78;;;1.93;89.94
43147;BME280;28752;48.266;7.402;2023-02-12T05:38:30;101408.56;;;1.87;90.22
43147;BME280;28752;48.266;7.402;2023-02-12T05:41:04;101405.78;;;1.93;89.98
43147;BME280;28752;48.266;7.402;2023-02-12T05:43:30;101406.78;;;1.87;89.88
43147;BME280;28752;48.266;7.402;2023-02-12T05:46:00;101401.44;;;1.92;89.70
43147;BME280;28752;48.266;7.402;2023-02-12T05:48:27;101409.22;;;1.93;89.74
43147;BME280;28752;48.266;7.402;2023-02-12T05:50:53;101406.41;;;2.01;89.57
43147;BME280;28752;48.266;7.402;2023-02-12T05:53:18;101389.03;;;1.99;89.56
43147;BME280;28752;48.266;7.402;2023-02-12T05:55:44;101401.19;;;2.01;89.74
43147;BME280;28752;48.266;7.402;2023-02-12T05:58:09;101397.72;;;2.01;89.59
43147;BME280;28752;48.266;7.402;2023-02-12T06:00:35;101404.47;;;2.08;89.31
43147;BME280;28752;48.266;7.402;2023-02-12T06:03:01;101402.03;;;2.02;89.43
43147;BME280;28752;48.266;7.402;2023-02-12T06:05:26;101401.22;;;2.00;89.71
43147;BME280;28752;48.266;7.402;2023-02-12T06:07:52;101402.81;;;2.05;89.52
43147;BME280;28752;48.266;7.402;2023-02-12T06:10:17;101385.81;;;1.90;89.95
43147;BME280;28752;48.266;7.402;2023-02-12T06:12:43;101401.19;;;2.01;89.96
43147;BME280;28752;48.266;7.402;2023-02-12T06:15:08;101382.09;;;1.99;90.22
43147;BME280;28752;48.266;7.402;2023-02-12T06:17:34;101396.72;;;2.05;90.40
43147;BME280;28752;48.266;7.402;2023-02-12T06:19:59;101394.06;;;2.06;91.32
43147;BME280;28752;48.266;7.402;2023-02-12T06:22:26;101389.19;;;2.25;91.89
43147;BME280;28752;48.266;7.402;2023-02-12T06:24:52;101400.16;;;2.37;92.32
43147;BME280;28752;48.266;7.402;2023-02-12T06:27:17;101376.91;;;2.27;91.96
43147;BME280;28752;48.266;7.402;2023-02-12T06:29:43;101398.34;;;2.40;92.32
43147;BME280;28752;48.266;7.402;2023-02-12T06:32:08;101401.19;;;2.33;92.50
43147;BME280;28752;48.266;7.402;2023-02-12T06:34:37;101394.88;;;2.38;92.47
43147;BME280;28752;48.266;7.402;2023-02-12T06:37:03;101400.03;;;2.41;92.10
43147;BME280;28752;48.266;7.402;2023-02-12T06:39:28;101399.97;;;2.43;92.72
43147;BME280;28752;48.266;7.402;2023-02-12T06:41:53;101391.44;;;2.38;93.04
43147;BME280;28752;48.266;7.402;2023-02-12T06:44:19;101398.63;;;2.59;92.21
43147;BME280;28752;48.266;7.402;2023-02-12T06:46:44;101393.81;;;2.45;92.22
43147;BME280;28752;48.266;7.402;2023-02-12T06:49:11;101401.34;;;2.56;92.19
43147;BME280;28752;48.266;7.402;2023-02-12T06:51:36;101405.47;;;2.63;91.84
43147;BME280;28752;48.266;7.402;2023-02-12T06:54:04;101404.81;;;2.85;90.93
43147;BME280;28752;48.266;7.402;2023-02-12T06:56:29;101392.56;;;2.87;89.99
43147;BME280;28752;48.266;7.402;2023-02-12T06:58:57;101409.69;;;2.96;89.50
43147;BME280;28752;48.266;7.402;2023-02-12T07:01:28;101409.75;;;3.23;88.07
43147;BME280;28752;48.266;7.402;2023-02-12T07:03:56;101404.25;;;3.30;87.62
43147;BME280;28752;48.266;7.402;2023-02-12T07:06:22;101404.28;;;3.55;86.21
43147;BME280;28752;48.266;7.402;2023-02-12T07:08:48;101399.56;;;3.65;85.16
43147;BME280;28752;48.266;7.402;2023-02-12T07:11:13;101411.03;;;3.88;84.69
43147;BME280;28752;48.266;7.402;2023-02-12T07:13:40;101407.66;;;3.84;84.67
43147;BME280;28752;48.266;7.402;2023-02-12T07:16:12;101405.09;;;3.83;84.55
43147;BME280;28752;48.266;7.402;2023-02-12T07:18:38;101408.06;;;3.97;83.95
43147;BME280;28752;48.266;7.402;2023-02-12T07:21:05;101400.19;;;3.97;84.18
43147;BME280;28752;48.266;7.402;2023-02-12T07:23:31;101412.19;;;3.79;84.83
43147;BME280;28752;48.266;7.402;2023-02-12T07:26:01;101390.47;;;3.50;85.09
43147;BME280;28752;48.266;7.402;2023-02-12T07:28:27;101408.94;;;3.72;84.76
43147;BME280;28752;48.266;7.402;2023-02-12T07:30:53;101409.25;;;3.63;84.53
43147;BME280;28752;48.266;7.402;2023-02-12T07:33:18;101400.41;;;3.66;84.96
43147;BME280;28752;48.266;7.402;2023-02-12T07:35:44;101411.75;;;3.91;84.35
43147;BME280;28752;48.266;7.402;2023-02-12T07:38:10;101397.53;;;3.99;83.83
43147;BME280;28752;48.266;7.402;2023-02-12T07:40:36;101412.34;;;4.23;83.32
43147;BME280;28752;48.266;7.402;2023-02-12T07:43:01;101404.66;;;4.42;82.73
43147;BME280;28752;48.266;7.402;2023-02-12T07:45:26;101416.66;;;4.72;81.82
43147;BME280;28752;48.266;7.402;2023-02-12T07:47:52;101406.53;;;5.07;80.39
43147;BME280;28752;48.266;7.402;2023-02-12T07:50:17;101401.97;;;5.12;80.17
43147;BME280;28752;48.266;7.402;2023-02-12T07:52:43;101408.41;;;5.25;79.88
43147;BME280;28752;48.266;7.402;2023-02-12T07:55:08;101409.22;;;5.27;80.00
43147;BME280;28752;48.266;7.402;2023-02-12T07:57:34;101402.47;;;5.63;79.98
43147;BME280;28752;48.266;7.402;2023-02-12T08:00:00;101394.78;;;5.79;78.17
43147;BME280;28752;48.266;7.402;2023-02-12T08:02:25;101413.31;;;5.76;78.05
43147;BME280;28752;48.266;7.402;2023-02-12T08:04:55;101395.25;;;5.68;78.77
43147;BME280;28752;48.266;7.402;2023-02-12T08:07:21;101398.38;;;5.56;79.05
43147;BME280;28752;48.266;7.402;2023-02-12T08:09:46;101409.69;;;5.58;78.51
43147;BME280;28752;48.266;7.402;2023-02-12T08:12:12;101406.09;;;5.60;78.15
43147;BME280;28752;48.266;7.402;2023-02-12T08:14:37;101414.16;;;5.76;77.62
43147;BME280;28752;48.266;7.402;2023-02-12T08:17:02;101412.78;;;6.09;76.52
43147;BME280;28752;48.266;7.402;2023-02-12T08:19:28;101411.22;;;6.04;75.93
43147;BME280;28752;48.266;7.402;2023-02-12T08:21:55;101413.66;;;6.09;75.86
43147;BME280;28752;48.266;7.402;2023-02-12T08:24:22;101418.06;;;6.28;75.39
43147;BME280;28752;48.266;7.402;2023-02-12T08:26:48;101408.84;;;6.38;74.67
43147;BME280;28752;48.266;7.402;2023-02-12T08:29:16;101426.72;;;6.50;74.93
43147;BME280;28752;48.266;7.402;2023-02-12T08:31:44;101418.31;;;6.61;74.15
43147;BME280;28752;48.266;7.402;2023-02-12T08:34:21;101412.91;;;6.64;74.38
43147;BME280;28752;48.266;7.402;2023-02-12T08:36:50;101420.22;;;6.96;73.51
43147;BME280;28752;48.266;7.402;2023-02-12T08:39:17;101415.44;;;7.21;72.28
43147;BME280;28752;48.266;7.402;2023-02-12T08:41:43;101412.31;;;6.96;73.21
43147;BME280;28752;48.266;7.402;2023-02-12T08:44:09;101421.66;;;7.01;73.00
43147;BME280;28752;48.266;7.402;2023-02-12T08:46:42;101416.91;;;6.90;73.02
43147;BME280;28752;48.266;7.402;2023-02-12T08:49:12;101416.09;;;7.07;72.73
43147;BME280;28752;48.266;7.402;2023-02-12T08:51:40;101416.19;;;7.06;72.77
43147;BME280;28752;48.266;7.402;2023-02-12T08:54:09;101411.91;;;6.67;73.39
43147;BME280;28752;48.266;7.402;2023-02-12T08:56:35;101423.22;;;6.69;74.58
43147;BME280;28752;48.266;7.402;2023-02-12T08:59:02;101416.31;;;6.47;75.56
43147;BME280;28752;48.266;7.402;2023-02-12T09:01:31;101416.97;;;6.71;75.33
43147;BME280;28752;48.266;7.402;2023-02-12T09:03:57;101414.88;;;6.78;75.40
43147;BME280;28752;48.266;7.402;2023-02-12T09:06:24;101424.44;;;6.98;74.38
43147;BME280;28752;48.266;7.402;2023-02-12T09:08:51;101421.50;;;7.23;73.96
43147;BME280;28752;48.266;7.402;2023-02-12T09:11:20;101404.91;;;7.39;73.27
43147;BME280;28752;48.266;7.402;2023-02-12T09:13:48;101415.59;;;7.36;73.53
43147;BME280;28752;48.266;7.402;2023-02-12T09:16:14;101407.63;;;7.55;72.80
43147;BME280;28752;48.266;7.402;2023-02-12T09:18:39;101401.19;;;7.78;72.64
43147;BME280;28752;48.266;7.402;2023-02-12T09:21:07;101412.56;;;7.96;71.82
43147;BME280;28752;48.266;7.402;2023-02-12T09:23:34;101399.38;;;7.78;71.57
43147;BME280;28752;48.266;7.402;2023-02-12T09:26:03;101402.91;;;8.12;71.36
43147;BME280;28752;48.266;7.402;2023-02-12T09:28:29;101398.31;;;8.32;70.98
43147;BME280;28752;48.266;7.402;2023-02-12T09:30:55;101398.41;;;8.30;71.53
43147;BME280;28752;48.266;7.402;2023-02-12T09:33:20;101402.75;;;8.15;72.00
43147;BME280;28752;48.266;7.402;2023-02-12T09:35:47;101394.19;;;8.10;71.67
43147;BME280;28752;48.266;7.402;2023-02-12T09:38:12;101392.97;;;8.00;72.35
43147;BME280;28752;48.266;7.402;2023-02-12T09:40:59;101391.28;;;7.99;72.23
43147;BME280;28752;48.266;7.402;2023-02-12T09:43:35;101389.38;;;7.85;72.31
43147;BME280;28752;48.266;7.402;2023-02-12T09:46:26;101393.88;;;7.83;73.68
43147;BME280;28752;48.266;7.402;2023-02-12T09:49:37;101397.88;;;8.24;72.90
43147;BME280;28752;48.266;7.402;2023-02-12T09:52:17;101400.38;;;8.27;71.65
43147;BME280;28752;48.266;7.402;2023-02-12T09:54:43;101387.00;;;8.14;72.03
43147;BME280;28752;48.266;7.402;2023-02-12T09:57:18;101397.47;;;8.31;71.95
43147;BME280;28752;48.266;7.402;2023-02-12T09:59:50;101394.34;;;8.41;72.17
43147;BME280;28752;48.266;7.402;2023-02-12T10:02:18;101401.22;;;8.27;71.72
43147;BME280;28752;48.266;7.402;2023-02-12T10:04:46;101400.53;;;8.24;72.00
43147;BME280;28752;48.266;7.402;2023-02-12T10:13:06;101402.03;;;8.12;73.58
43147;BME280;28752;48.266;7.402;2023-02-12T10:23:46;101391.69;;;8.25;72.15
43147;BME280;28752;48.266;7.402;2023-02-12T10:26:20;101398.13;;;7.86;73.68
43147;BME280;28752;48.266;7.402;2023-02-12T10:28:50;101398.31;;;7.82;74.28
43147;BME280;28752;48.266;7.402;2023-02-12T10:31:23;101395.50;;;7.68;74.63
43147;BME280;28752;48.266;7.402;2023-02-12T10:33:50;101400.94;;;7.65;75.04
43147;BME280;28752;48.266;7.402;2023-02-12T10:39:06;101394.09;;;7.78;74.13
43147;BME280;28752;48.266;7.402;2023-02-12T10:41:42;101395.44;;;7.70;74.15
43147;BME280;28752;48.266;7.402;2023-02-12T10:44:12;101398.88;;;7.72;74.38
43147;BME280;28752;48.266;7.402;2023-02-12T10:46:37;101392.56;;;7.74;74.38
43147;BME280;28752;48.266;7.402;2023-02-12T10:49:04;101381.09;;;7.75;73.99
43147;BME280;28752;48.266;7.402;2023-02-12T10:54:52;101389.31;;;7.69;74.19
43147;BME280;28752;48.266;7.402;2023-02-12T10:57:29;101379.31;;;7.58;74.21
43147;BME280;28752;48.266;7.402;2023-02-12T11:00:13;101387.75;;;7.65;74.91
43147;BME280;28752;48.266;7.402;2023-02-12T11:02:38;101377.69;;;7.73;74.97
43147;BME280;28752;48.266;7.402;2023-02-12T11:05:24;101380.53;;;7.86;74.17
43147;BME280;28752;48.266;7.402;2023-02-12T11:07:50;101385.78;;;7.86;73.77
43147;BME280;28752;48.266;7.402;2023-02-12T11:10:29;101378.34;;;7.94;73.41
43147;BME280;28752;48.266;7.402;2023-02-12T11:12:57;101375.09;;;7.89;73.50
43147;BME280;28752;48.266;7.402;2023-02-12T11:15:24;101369.88;;;7.88;73.58
43147;BME280;28752;48.266;7.402;2023-02-12T11:17:57;101368.28;;;7.85;73.34
43147;BME280;28752;48.266;7.402;2023-02-12T11:20:29;101362.28;;;7.99;72.95
43147;BME280;28752;48.266;7.402;2023-02-12T11:23:02;101355.09;;;7.85;73.00
43147;BME280;28752;48.266;7.402;2023-02-12T11:25:32;101355.97;;;8.01;73.23
43147;BME280;28752;48.266;7.402;2023-02-12T11:28:14;101357.81;;;8.17;72.92
43147;BME280;28752;48.266;7.402;2023-02-12T11:33:38;101347.78;;;8.40;71.56
43147;BME280;28752;48.266;7.402;2023-02-12T11:36:15;101345.22;;;8.38;71.67
43147;BME280;28752;48.266;7.402;2023-02-12T11:38:55;101346.94;;;8.55;71.16
43147;BME280;28752;48.266;7.402;2023-02-12T11:44:25;101337.84;;;8.45;70.93
43147;BME280;28752;48.266;7.402;2023-02-12T11:47:00;101330.41;;;8.51;71.13
43147;BME280;28752;48.266;7.402;2023-02-12T11:49:31;101314.03;;;8.61;71.71
43147;BME280;28752;48.266;7.402;2023-02-12T11:52:00;101328.00;;;8.79;71.37
43147;BME280;28752;48.266;7.402;2023-02-12T11:54:29;101330.03;;;8.89;71.04
43147;BME280;28752;48.266;7.402;2023-02-12T11:56:55;101322.28;;;8.86;70.50
43147;BME280;28752;48.266;7.402;2023-02-12T11:59:40;101326.81;;;8.84;70.37
43147;BME280;28752;48.266;7.402;2023-02-12T12:04:39;101310.03;;;9.16;69.62
43147;BME280;28752;48.266;7.402;2023-02-12T12:07:35;101323.19;;;9.01;69.85
43147;BME280;28752;48.266;7.402;2023-02-12T12:10:17;101311.00;;;8.99;70.58
43147;BME280;28752;48.266;7.402;2023-02-12T12:12:50;101301.28;;;8.99;69.78
43147;BME280;28752;48.266;7.402;2023-02-12T12:15:31;101303.22;;;9.12;69.08
43147;BME280;28752;48.266;7.402;2023-02-12T12:24:05;101291.97;;;9.08;69.66
43147;BME280;28752;48.266;7.402;2023-02-12T12:26:33;101306.91;;;9.23;69.84
43147;BME280;28752;48.266;7.402;2023-02-12T12:29:15;101301.72;;;9.22;69.89
43147;BME280;28752;48.266;7.402;2023-02-12T12:31:45;101307.81;;;9.38;69.45
43147;BME280;28752;48.266;7.402;2023-02-12T12:34:14;101299.50;;;9.45;69.10
43147;BME280;28752;48.266;7.402;2023-02-12T12:36:55;101301.78;;;9.51;68.67
43147;BME280;28752;48.266;7.402;2023-02-12T12:47:39;101306.97;;;9.52;69.15
43147;BME280;28752;48.266;7.402;2023-02-12T12:58:26;101292.13;;;9.35;69.84
43147;BME280;28752;48.266;7.402;2023-02-12T13:17:23;101285.50;;;9.42;69.70
43147;BME280;28752;48.266;7.402;2023-02-12T13:20:03;101274.47;;;9.50;70.63
43147;BME280;28752;48.266;7.402;2023-02-12T13:27:52;101263.41;;;9.58;70.16
43147;BME280;28752;48.266;7.402;2023-02-12T13:30:21;101252.38;;;9.51;70.17
43147;BME280;28752;48.266;7.402;2023-02-12T13:33:12;101259.09;;;9.57;70.03
43147;BME280;28752;48.266;7.402;2023-02-12T13:35:44;101259.81;;;9.59;70.13
43147;BME280;28752;48.266;7.402;2023-02-12T13:38:18;101255.22;;;9.63;70.08
43147;BME280;28752;48.266;7.402;2023-02-12T13:40:45;101255.59;;;9.71;69.75
43147;BME280;28752;48.266;7.402;2023-02-12T13:54:25;101257.00;;;9.76;70.14
43147;BME280;28752;48.266;7.402;2023-02-12T13:56:59;101241.31;;;9.73;70.12
43147;BME280;28752;48.266;7.402;2023-02-12T14:05:13;101243.28;;;9.84;70.64
43147;BME280;28752;48.266;7.402;2023-02-12T14:07:43;101241.38;;;9.86;70.52
43147;BME280;28752;48.266;7.402;2023-02-12T14:10:29;101239.47;;;9.88;70.37
43147;BME280;28752;48.266;7.402;2023-02-12T14:13:08;101227.03;;;9.90;70.62
43147;BME280;28752;48.266;7.402;2023-02-12T14:15:36;101230.31;;;9.94;70.95
43147;BME280;28752;48.266;7.402;2023-02-12T14:18:24;101234.28;;;9.87;70.57
43147;BME280;28752;48.266;7.402;2023-02-12T14:23:45;101203.41;;;9.73;70.76
43147;BME280;28752;48.266;7.402;2023-02-12T14:26:18;101214.44;;;9.94;70.72
43147;BME280;28752;48.266;7.402;2023-02-12T14:29:00;101213.84;;;10.03;70.64
43147;BME280;28752;48.266;7.402;2023-02-12T14:31:39;101217.66;;;9.99;70.70
43147;BME280;28752;48.266;7.402;2023-02-12T14:41:44;101209.53;;;10.02;70.13
43147;BME280;28752;48.266;7.402;2023-02-12T14:49:38;101207.22;;;10.10;70.01
43147;BME280;28752;48.266;7.402;2023-02-12T14:54:58;101202.84;;;10.09;69.84
43147;BME280;28752;48.266;7.402;2023-02-12T14:57:39;101197.66;;;10.08;70.52
43147;BME280;28752;48.266;7.402;2023-02-12T15:03:38;101204.06;;;10.18;70.04
43147;BME280;28752;48.266;7.402;2023-02-12T15:06:00;101201.53;;;10.17;70.20
43147;BME280;28752;48.266;7.402;2023-02-12T15:13:48;101205.09;;;10.16;70.27
43147;BME280;28752;48.266;7.402;2023-02-12T15:19:01;101183.06;;;10.02;70.41
43147;BME280;28752;48.266;7.402;2023-02-12T15:21:30;101188.69;;;10.10;70.87
43147;BME280;28752;48.266;7.402;2023-02-12T15:24:07;101201.72;;;10.13;70.86
43147;BME280;28752;48.266;7.402;2023-02-12T15:26:36;101203.44;;;10.14;70.78
43147;BME280;28752;48.266;7.402;2023-02-12T15:29:03;101181.25;;;10.03;70.88
43147;BME280;28752;48.266;7.402;2023-02-12T15:31:30;101196.63;;;10.10;71.30
43147;BME280;28752;48.266;7.402;2023-02-12T15:33:59;101202.41;;;10.03;71.99
43147;BME280;28752;48.266;7.402;2023-02-12T15:36:27;101213.84;;;10.03;72.36
43147;BME280;28752;48.266;7.402;2023-02-12T15:38:55;101210.78;;;10.09;72.14
43147;BME280;28752;48.266;7.402;2023-02-12T15:43:56;101207.28;;;9.96;72.37
43147;BME280;28752;48.266;7.402;2023-02-12T15:46:22;101195.38;;;9.89;72.66
43147;BME280;28752;48.266;7.402;2023-02-12T15:48:47;101195.38;;;9.89;72.45
43147;BME280;28752;48.266;7.402;2023-02-12T15:53:42;101195.88;;;9.81;72.52
43147;BME280;28752;48.266;7.402;2023-02-12T15:56:12;101211.34;;;9.87;72.70